Time;durP1;ratioP1;P1;durP2;ratioP2;P2;SDS_P1;SDS_P2;PMS_P1;PMS_P2;Temp;Humidity;BMP_temperature;BMP_pressure;BME280_temperature;BME280_humidity;BME280_pressure;Samples;Min_cycle;Max_cycle;Signal;HPM_P1;HPM_P2
2023/10/02 00:01:51;;;;;;;;;;;10.60;99.90;;;;;;5076402;28;19908;-54
2023/10/02 00:04:23;;;;;;;;;;;10.50;99.90;;;;;;5076632;28;20290;-54
2023/10/02 00:07:05;;;;;;;;;;;10.60;99.90;;;;;;5076400;28;19912;-54
2023/10/02 00:09:38;;;;;;;;;;;10.60;99.90;;;;;;5076786;28;19909;-54
2023/10/02 00:12:13;;;;;;;;;;;10.60;99.90;;;;;;5076469;28;19908;-54
2023/10/02 00:14:41;;;;;;;;;;;10.60;99.90;;;;;;5076473;28;19909;-54
2023/10/02 00:17:13;;;;;;;;;;;10.70;99.90;;;;;;5076815;28;19908;-53
2023/10/02 00:19:46;;;;;;;;;;;10.60;99.90;;;;;;5076572;28;19930;-54
2023/10/02 00:22:34;;;;;;;;;;;10.50;99.90;;;;;;5076353;28;19938;-54
2023/10/02 00:25:00;;;;;;;;;;;10.50;99.90;;;;;;5076095;28;19912;-54
2023/10/02 00:27:28;;;;;;;;;;;10.40;99.90;;;;;;5076435;28;20335;-54
2023/10/02 00:29:58;;;;;;;;;;;10.40;99.90;;;;;;5074218;28;19915;-54
2023/10/02 00:32:29;;;;;;;;;;;10.40;99.90;;;;;;5058278;28;19912;-54
2023/10/02 00:35:00;;;;;;;;;;;10.20;99.90;;;;;;5075981;28;20313;-54
2023/10/02 00:37:47;;;;;;;;;;;10.30;99.90;;;;;;5075908;28;19908;-54
2023/10/02 00:40:22;;;;;;;;;;;10.20;99.90;;;;;;5076221;28;19995;-54
2023/10/02 00:42:49;;;;;;;;;;;10.20;99.90;;;;;;5076127;28;19912;-54
2023/10/02 00:45:18;;;;;;;;;;;10.30;99.90;;;;;;5076086;28;19908;-54
2023/10/02 00:47:48;;;;;;;;;;;10.20;99.90;;;;;;5058104;28;19930;-54
2023/10/02 00:50:18;;;;;;;;;;;10.10;99.90;;;;;;5075806;28;20277;-54
2023/10/02 00:52:47;;;;;;;;;;;10.20;99.90;;;;;;5075745;28;19916;-54
2023/10/02 00:55:17;;;;;;;;;;;10.20;99.90;;;;;;5074418;28;20002;-54
2023/10/02 00:57:45;;;;;;;;;;;10.20;99.90;;;;;;5075942;28;19962;-54
2023/10/02 01:00:19;;;;;;;;;;;10.20;99.90;;;;;;5054489;28;19908;-54
2023/10/02 01:02:45;;;;;;;;;;;10.10;99.90;;;;;;5037903;28;19966;-54
2023/10/02 01:05:15;;;;;;;;;;;10.10;99.90;;;;;;5055512;28;19909;-54
2023/10/02 01:07:41;;;;;;;;;;;10.20;99.90;;;;;;5055696;28;19913;-54
2023/10/02 01:10:08;;;;;;;;;;;10.30;99.90;;;;;;5037870;28;20290;-54
2023/10/02 01:12:43;;;;;;;;;;;10.30;99.90;;;;;;5037682;28;19916;-54
2023/10/02 01:15:12;;;;;;;;;;;10.20;99.90;;;;;;5055336;28;19932;-54
2023/10/02 01:17:47;;;;;;;;;;;10.10;99.90;;;;;;5055782;28;19912;-54
2023/10/02 01:23:17;;;;;;;;;;;10.10;99.90;;;;;;5055912;28;19909;-54
2023/10/02 01:25:44;;;;;;;;;;;10.10;99.90;;;;;;5055269;28;20289;-54
2023/10/02 01:28:13;;;;;;;;;;;10.10;99.90;;;;;;5037715;28;19905;-54
2023/10/02 01:30:40;;;;;;;;;;;10.20;99.90;;;;;;5055615;28;19909;-54
2023/10/02 01:35:46;;;;;;;;;;;10.10;99.90;;;;;;5055495;28;19920;-54
2023/10/02 01:38:13;;;;;;;;;;;10.10;99.90;;;;;;5055704;28;19909;-54
2023/10/02 01:40:43;;;;;;;;;;;10.10;99.90;;;;;;5037694;28;19991;-54
2023/10/02 01:43:13;;;;;;;;;;;10.00;99.90;;;;;;5037580;28;19908;-54
2023/10/02 01:45:42;;;;;;;;;;;10.00;99.90;;;;;;5055434;28;20366;-54
2023/10/02 01:48:15;;;;;;;;;;;10.10;99.90;;;;;;5055620;28;19905;-54
2023/10/02 01:50:44;;;;;;;;;;;10.00;99.90;;;;;;5037168;28;20337;-54
2023/10/02 01:53:29;;;;;;;;;;;10.00;99.90;;;;;;5055370;28;19915;-54
2023/10/02 01:56:05;;;;;;;;;;;10.00;99.90;;;;;;5055203;28;19913;-54
2023/10/02 01:58:32;;;;;;;;;;;10.00;99.90;;;;;;5043341;28;19908;-54
2023/10/02 02:01:00;;;;;;;;;;;10.00;99.90;;;;;;5074060;28;19948;-54
2023/10/02 02:03:28;;;;;;;;;;;9.90;99.90;;;;;;5057294;28;19915;-54
2023/10/02 02:05:54;;;;;;;;;;;9.80;99.90;;;;;;5075355;28;19905;-54
2023/10/02 02:08:22;;;;;;;;;;;9.90;99.90;;;;;;5056806;28;19912;-54
2023/10/02 02:10:53;;;;;;;;;;;9.90;99.90;;;;;;5075659;28;19912;-54
2023/10/02 02:13:20;;;;;;;;;;;9.90;99.90;;;;;;5075072;28;19908;-54
2023/10/02 02:15:47;;;;;;;;;;;9.90;99.90;;;;;;5057119;28;19920;-54
2023/10/02 02:18:16;;;;;;;;;;;9.90;99.90;;;;;;5075459;28;19943;-54
2023/10/02 02:20:44;;;;;;;;;;;10.00;99.90;;;;;;5060809;28;20346;-54
2023/10/02 02:23:14;;;;;;;;;;;9.90;99.90;;;;;;5078675;28;19952;-54
2023/10/02 02:25:41;;;;;;;;;;;9.90;99.90;;;;;;5077424;28;19908;-54
2023/10/02 02:28:06;;;;;;;;;;;9.90;99.90;;;;;;5060580;28;19908;-54
2023/10/02 02:30:40;;;;;;;;;;;9.90;99.90;;;;;;5077341;28;20334;-54
2023/10/02 02:33:12;;;;;;;;;;;9.90;99.90;;;;;;5078607;28;19986;-54
2023/10/02 02:35:39;;;;;;;;;;;9.80;99.90;;;;;;5060488;28;19912;-54
2023/10/02 02:38:14;;;;;;;;;;;9.80;99.90;;;;;;5078690;28;20027;-54
2023/10/02 02:40:40;;;;;;;;;;;9.80;99.90;;;;;;5060444;28;19908;-54
2023/10/02 02:43:19;;;;;;;;;;;9.80;99.90;;;;;;5078450;28;19908;-54
2023/10/02 02:45:45;;;;;;;;;;;9.80;99.90;;;;;;5078401;28;20016;-54
2023/10/02 02:48:12;;;;;;;;;;;9.80;99.90;;;;;;5078236;28;19999;-54
2023/10/02 02:50:42;;;;;;;;;;;9.80;99.90;;;;;;5060065;28;19909;-54
2023/10/02 02:53:30;;;;;;;;;;;9.80;99.90;;;;;;5078187;28;19909;-54
2023/10/02 02:56:14;;;;;;;;;;;9.80;99.90;;;;;;5078030;28;19912;-54
2023/10/02 02:58:51;;;;;;;;;;;9.80;99.90;;;;;;5070659;28;19919;-54
2023/10/02 03:01:22;;;;;;;;;;;9.80;99.90;;;;;;5040115;28;20381;-53
2023/10/02 03:03:49;;;;;;;;;;;9.80;99.90;;;;;;5040018;28;19916;-54
2023/10/02 03:06:22;;;;;;;;;;;9.80;99.90;;;;;;5057777;28;20321;-54
2023/10/02 03:08:51;;;;;;;;;;;9.80;99.90;;;;;;5057830;28;19908;-54
2023/10/02 03:11:19;;;;;;;;;;;9.70;99.90;;;;;;5057820;28;20320;-54
2023/10/02 03:13:45;;;;;;;;;;;9.70;99.90;;;;;;5057525;28;20297;-54
2023/10/02 03:16:12;;;;;;;;;;;9.70;99.90;;;;;;5057743;28;19913;-54
2023/10/02 03:18:43;;;;;;;;;;;9.60;99.90;;;;;;5057712;28;19908;-54
2023/10/02 03:21:24;;;;;;;;;;;9.70;99.90;;;;;;5057475;28;19932;-54
2023/10/02 03:23:53;;;;;;;;;;;9.60;99.90;;;;;;5057637;28;19931;-54
2023/10/02 03:29:11;;;;;;;;;;;9.70;99.90;;;;;;5057359;28;19919;-54
2023/10/02 03:31:43;;;;;;;;;;;9.80;99.90;;;;;;5057513;28;19940;-54
2023/10/02 03:37:10;;;;;;;;;;;9.70;99.90;;;;;;5023393;28;19943;-54
2023/10/02 03:39:53;;;;;;;;;;;9.70;99.90;;;;;;5057321;28;19948;-54
2023/10/02 03:42:22;;;;;;;;;;;9.70;99.90;;;;;;5057268;28;19931;-54
2023/10/02 03:44:50;;;;;;;;;;;9.60;99.90;;;;;;5057126;28;19916;-54
2023/10/02 03:47:15;;;;;;;;;;;9.60;99.90;;;;;;5039137;28;19909;-54
2023/10/02 03:49:44;;;;;;;;;;;9.50;99.90;;;;;;5057362;28;19915;-54
2023/10/02 03:52:13;;;;;;;;;;;9.50;99.90;;;;;;5057598;28;19905;-54
2023/10/02 03:54:40;;;;;;;;;;;9.50;99.90;;;;;;5056928;28;20397;-54
2023/10/02 03:57:07;;;;;;;;;;;9.50;99.90;;;;;;5056563;28;19935;-54
2023/10/02 03:59:32;;;;;;;;;;;9.50;99.90;;;;;;5071320;28;19912;-54
2023/10/02 04:02:24;;;;;;;;;;;9.60;99.90;;;;;;5076809;28;20270;-54
2023/10/02 04:04:46;;;;;;;;;;;9.60;99.90;;;;;;5076644;28;20369;-54
2023/10/02 04:07:12;;;;;;;;;;;9.60;99.90;;;;;;5076598;28;19913;-54
2023/10/02 04:09:38;;;;;;;;;;;9.60;99.90;;;;;;5076718;28;19931;-54
2023/10/02 04:12:06;;;;;;;;;;;9.70;99.90;;;;;;5076470;28;20007;-54
2023/10/02 04:14:32;;;;;;;;;;;9.70;99.90;;;;;;5076618;28;19908;-54
2023/10/02 04:17:13;;;;;;;;;;;9.60;99.90;;;;;;5076493;28;19980;-54
2023/10/02 04:19:49;;;;;;;;;;;9.60;99.90;;;;;;5076449;28;20346;-54
2023/10/02 04:22:25;;;;;;;;;;;9.60;99.90;;;;;;5076481;28;19909;-54
2023/10/02 04:25:03;;;;;;;;;;;9.60;99.90;;;;;;5076385;28;19919;-54
2023/10/02 04:32:34;;;;;;;;;;;9.60;99.90;;;;;;5076565;28;19919;-54
2023/10/02 04:35:02;;;;;;;;;;;9.50;99.90;;;;;;5076208;28;19908;-54
2023/10/02 04:37:31;;;;;;;;;;;9.60;99.90;;;;;;5076237;28;19915;-54
2023/10/02 04:42:29;;;;;;;;;;;9.50;99.90;;;;;;5075923;28;19919;-54
2023/10/02 04:44:57;;;;;;;;;;;9.50;99.90;;;;;;5076111;28;19912;-54
2023/10/02 04:47:26;;;;;;;;;;;9.40;99.90;;;;;;5076077;28;19923;-54
2023/10/02 04:53:19;;;;;;;;;;;9.50;99.90;;;;;;5076062;28;19909;-54
2023/10/02 04:55:42;;;;;;;;;;;9.50;99.90;;;;;;5072729;28;20240;-54
2023/10/02 04:58:17;;;;;;;;;;;9.50;99.90;;;;;;5072856;28;19917;-54
2023/10/02 05:03:28;;;;;;;;;;;9.60;99.90;;;;;;5055765;28;19909;-54
2023/10/02 05:05:55;;;;;;;;;;;9.60;99.90;;;;;;5056091;28;19947;-54
2023/10/02 05:08:29;;;;;;;;;;;9.60;99.90;;;;;;5055666;28;19912;-54
2023/10/02 05:11:05;;;;;;;;;;;9.70;99.90;;;;;;5055805;28;19908;-54
2023/10/02 05:16:19;;;;;;;;;;;10.10;99.90;;;;;;5055993;28;20350;-54
2023/10/02 05:18:47;;;;;;;;;;;10.50;99.90;;;;;;5055133;28;20143;-54
2023/10/02 05:21:17;;;;;;;;;;;10.70;99.90;;;;;;5056227;28;19909;-54
2023/10/02 05:23:56;;;;;;;;;;;10.70;99.90;;;;;;5046212;28;19912;-54
2023/10/02 05:26:36;;;;;;;;;;;10.90;99.90;;;;;;5049800;28;20373;-54
2023/10/02 05:29:05;;;;;;;;;;;11.10;99.90;;;;;;5055621;28;20358;-54
2023/10/02 05:31:35;;;;;;;;;;;11.60;99.90;;;;;;5054316;28;19908;-54
2023/10/02 05:34:08;;;;;;;;;;;12.30;99.90;;;;;;5054976;28;19909;-54
2023/10/02 05:36:35;;;;;;;;;;;12.60;99.90;;;;;;5055357;28;19919;-54
2023/10/02 05:41:46;;;;;;;;;;;12.60;99.90;;;;;;5046432;28;20317;-54
2023/10/02 05:44:23;;;;;;;;;;;12.70;99.90;;;;;;5035350;28;19909;-54
2023/10/02 05:46:55;;;;;;;;;;;13.00;99.90;;;;;;5036015;28;19915;-54
2023/10/02 05:49:23;;;;;;;;;;;13.30;99.90;;;;;;5052092;28;19909;-54
2023/10/02 05:51:55;;;;;;;;;;;13.30;99.90;;;;;;5048289;28;19952;-54
2023/10/02 05:54:29;;;;;;;;;;;13.30;99.90;;;;;;5059462;28;19908;-54
2023/10/02 05:57:16;;;;;;;;;;;13.60;99.90;;;;;;5059593;28;20254;-54
2023/10/02 05:59:47;;;;;;;;;;;13.70;99.90;;;;;;5055297;28;19912;-54
2023/10/02 06:02:14;;;;;;;;;;;14.00;99.90;;;;;;5058735;28;19916;-54
2023/10/02 06:04:47;;;;;;;;;;;14.00;99.90;;;;;;5055967;28;19949;-54
2023/10/02 06:07:40;;;;;;;;;;;14.20;99.90;;;;;;5049671;28;19955;-54
2023/10/02 06:10:24;;;;;;;;;;;14.30;99.90;;;;;;5049257;28;19916;-54
2023/10/02 06:12:57;;;;;;;;;;;14.50;99.90;;;;;;5038512;28;19916;-54
2023/10/02 06:15:43;;;;;;;;;;;14.90;99.90;;;;;;5037488;28;20347;-54
2023/10/02 06:18:09;;;;;;;;;;;15.10;99.90;;;;;;5054061;28;19963;-54
2023/10/02 06:20:35;;;;;;;;;;;15.50;99.90;;;;;;5051860;28;19916;-54
2023/10/02 06:23:19;;;;;;;;;;;15.90;99.20;;;;;;5052193;28;20243;-54
2023/10/02 06:25:46;;;;;;;;;;;15.90;97.90;;;;;;5043221;28;19979;-54
2023/10/02 06:28:27;;;;;;;;;;;16.00;98.00;;;;;;5047357;28;19909;-54
2023/10/02 06:30:54;;;;;;;;;;;16.00;97.10;;;;;;5051356;28;19916;-54
2023/10/02 06:33:23;;;;;;;;;;;16.20;95.60;;;;;;5046118;28;20043;-54
2023/10/02 06:36:00;;;;;;;;;;;16.10;96.70;;;;;;5041735;28;19968;-54
2023/10/02 06:38:30;;;;;;;;;;;16.60;95.40;;;;;;5056380;28;19923;-54
2023/10/02 06:40:59;;;;;;;;;;;16.90;94.70;;;;;;5057096;28;20381;-54
2023/10/02 06:43:28;;;;;;;;;;;17.10;93.00;;;;;;5050345;28;19917;-54
2023/10/02 06:46:06;;;;;;;;;;;17.40;92.60;;;;;;5052208;28;19908;-54
2023/10/02 06:48:47;;;;;;;;;;;17.90;92.50;;;;;;5057007;28;20373;-54
2023/10/02 06:51:13;;;;;;;;;;;18.20;91.40;;;;;;5050121;28;19913;-54
2023/10/02 06:53:40;;;;;;;;;;;18.40;88.90;;;;;;5046016;28;19909;-54
2023/10/02 06:56:12;;;;;;;;;;;18.70;90.00;;;;;;5038323;28;20357;-54
2023/10/02 06:58:56;;;;;;;;;;;18.70;86.70;;;;;;5055626;28;20377;-54
2023/10/02 07:01:28;;;;;;;;;;;18.20;86.30;;;;;;5065755;28;19913;-54
2023/10/02 07:03:56;;;;;;;;;;;17.90;88.50;;;;;;5057496;28;20007;-54
2023/10/02 07:06:26;;;;;;;;;;;18.30;88.80;;;;;;5057490;28;19909;-55
2023/10/02 07:09:10;;;;;;;;;;;18.40;86.00;;;;;;5057480;28;20504;-55
2023/10/02 07:11:36;;;;;;;;;;;18.90;87.20;;;;;;5057879;28;20277;-55
2023/10/02 07:14:04;;;;;;;;;;;19.30;84.60;;;;;;5057503;28;19909;-53
2023/10/02 07:16:32;;;;;;;;;;;19.50;81.80;;;;;;5073304;28;20392;-53
2023/10/02 07:18:59;;;;;;;;;;;20.00;81.60;;;;;;5056631;28;19908;-53
2023/10/02 07:21:30;;;;;;;;;;;19.90;79.40;;;;;;5047895;28;19995;-53
2023/10/02 07:24:03;;;;;;;;;;;19.70;80.30;;;;;;5048846;28;19909;-53
2023/10/02 07:29:13;;;;;;;;;;;20.10;79.50;;;;;;5057693;28;19912;-53
2023/10/02 07:31:44;;;;;;;;;;;19.80;78.70;;;;;;5057243;28;19909;-54
2023/10/02 07:34:15;;;;;;;;;;;19.90;76.60;;;;;;5057083;28;19908;-53
2023/10/02 07:36:44;;;;;;;;;;;19.70;79.20;;;;;;5057197;28;19912;-53
2023/10/02 07:39:35;;;;;;;;;;;20.10;77.00;;;;;;5056814;28;19909;-53
2023/10/02 07:42:04;;;;;;;;;;;20.20;76.20;;;;;;5056735;28;19995;-53
2023/10/02 07:44:39;;;;;;;;;;;20.00;75.70;;;;;;5050436;28;19908;-53
2023/10/02 07:47:21;;;;;;;;;;;20.10;75.50;;;;;;5037811;28;19916;-53
2023/10/02 07:49:48;;;;;;;;;;;19.40;76.50;;;;;;5055103;28;19909;-54
2023/10/02 07:52:38;;;;;;;;;;;20.10;77.10;;;;;;5054793;28;20313;-54
2023/10/02 07:55:01;;;;;;;;;;;20.50;75.20;;;;;;5055204;28;20358;-54
2023/10/02 07:57:33;;;;;;;;;;;21.80;72.40;;;;;;5055627;28;20392;-54
2023/10/02 08:00:33;;;;;;;;;;;22.30;69.30;;;;;;5056367;28;19970;-54
2023/10/02 08:02:52;;;;;;;;;;;23.10;66.60;;;;;;5056173;28;19912;-54
2023/10/02 08:05:20;;;;;;;;;;;22.40;64.00;;;;;;5056447;28;20416;-54
2023/10/02 08:07:46;;;;;;;;;;;22.60;64.90;;;;;;5056156;28;19912;-54
2023/10/02 08:10:13;;;;;;;;;;;23.00;62.20;;;;;;5056354;28;19959;-54
2023/10/02 08:12:54;;;;;;;;;;;22.60;62.60;;;;;;5056064;28;20415;-54
2023/10/02 08:15:26;;;;;;;;;;;22.40;60.60;;;;;;5055590;28;20404;-54
2023/10/02 08:23:21;;;;;;;;;;;22.90;62.50;;;;;;5036682;28;19909;-54
2023/10/02 08:26:03;;;;;;;;;;;23.40;59.10;;;;;;5036102;28;20442;-54
2023/10/02 08:28:30;;;;;;;;;;;23.30;57.00;;;;;;5036042;28;19916;-55
2023/10/02 08:31:02;;;;;;;;;;;23.40;57.80;;;;;;5036119;28;19909;-54
2023/10/02 08:33:30;;;;;;;;;;;24.10;55.50;;;;;;5036126;28;20004;-54
2023/10/02 08:35:57;;;;;;;;;;;24.50;55.50;;;;;;5036157;28;19913;-54
2023/10/02 08:38:23;;;;;;;;;;;24.70;53.30;;;;;;5036156;28;20003;-54
2023/10/02 08:40:57;;;;;;;;;;;24.70;54.60;;;;;;5035820;28;19943;-54
2023/10/02 08:43:26;;;;;;;;;;;25.40;51.70;;;;;;5036210;28;19909;-54
2023/10/02 08:45:52;;;;;;;;;;;26.40;49.70;;;;;;5035822;28;19905;-54
2023/10/02 08:48:20;;;;;;;;;;;26.70;48.70;;;;;;5035563;28;20420;-54
2023/10/02 08:50:47;;;;;;;;;;;26.70;47.70;;;;;;5035766;28;20405;-54
2023/10/02 08:53:20;;;;;;;;;;;27.50;44.80;;;;;;5035685;28;19979;-54
2023/10/02 08:58:31;;;;;;;;;;;27.20;45.20;;;;;;5037987;28;20377;-54
2023/10/02 09:03:41;;;;;;;;;;;27.30;42.60;;;;;;5048549;28;19913;-54
2023/10/02 09:06:25;;;;;;;;;;;27.40;43.80;;;;;;5051381;28;19913;-55
2023/10/02 09:11:36;;;;;;;;;;;27.90;41.40;;;;;;5055375;28;19915;-54
2023/10/02 09:17:07;;;;;;;;;;;27.20;40.80;;;;;;5055225;28;19912;-54
2023/10/02 09:19:37;;;;;;;;;;;27.20;42.00;;;;;;5055237;28;19909;-54
2023/10/02 09:22:06;;;;;;;;;;;27.70;42.00;;;;;;5054192;28;20369;-54
2023/10/02 09:24:34;;;;;;;;;;;26.90;42.40;;;;;;5055473;28;19999;-54
2023/10/02 09:27:23;;;;;;;;;;;26.00;43.90;;;;;;5056297;28;19908;-54
2023/10/02 09:29:47;;;;;;;;;;;26.00;42.50;;;;;;5059244;28;19909;-54
2023/10/02 09:32:23;;;;;;;;;;;25.10;44.20;;;;;;5058141;28;19908;-54
2023/10/02 09:35:10;;;;;;;;;;;25.00;46.10;;;;;;5059499;28;19908;-54
2023/10/02 09:37:41;;;;;;;;;;;25.10;46.40;;;;;;5059634;28;19912;-54
2023/10/02 09:40:17;;;;;;;;;;;26.00;46.70;;;;;;5058713;28;19915;-54
2023/10/02 09:42:48;;;;;;;;;;;26.00;45.20;;;;;;5050715;28;19909;-54
2023/10/02 09:45:15;;;;;;;;;;;26.00;43.30;;;;;;5039247;28;19913;-54
2023/10/02 09:47:43;;;;;;;;;;;25.60;44.50;;;;;;5039550;28;19909;-54
2023/10/02 09:50:23;;;;;;;;;;;25.60;44.00;;;;;;5051512;28;19908;-54
2023/10/02 09:53:08;;;;;;;;;;;26.30;44.50;;;;;;5046958;28;20004;-54
2023/10/02 09:55:37;;;;;;;;;;;26.60;43.20;;;;;;5039570;28;20321;-54
2023/10/02 09:58:05;;;;;;;;;;;28.00;44.50;;;;;;5048628;28;20433;-54
2023/10/02 10:00:34;;;;;;;;;;;28.20;42.20;;;;;;5059450;28;19909;-54
2023/10/02 10:03:22;;;;;;;;;;;28.30;40.80;;;;;;5058868;28;19916;-54
2023/10/02 10:06:05;;;;;;;;;;;29.10;41.10;;;;;;5053682;28;20304;-54
2023/10/02 10:09:18;;;;;;;;;;;28.90;38.70;;;;;;5053733;28;19967;-54
2023/10/02 10:11:36;;;;;;;;;;;27.70;39.90;;;;;;5048584;28;19915;-54
2023/10/02 10:14:35;;;;;;;;;;;27.70;40.90;;;;;;5050770;28;19908;-54
2023/10/02 10:17:14;;;;;;;;;;;26.90;41.50;;;;;;5042421;28;19913;-54
2023/10/02 10:20:18;;;;;;;;;;;27.60;41.40;;;;;;5056701;28;19909;-54
2023/10/02 10:22:50;;;;;;;;;;;28.00;43.30;;;;;;5056447;28;19915;-55
2023/10/02 10:27:54;;;;;;;;;;;28.50;40.20;;;;;;5058692;28;19908;-65
2023/10/02 10:30:33;;;;;;;;;;;29.10;39.70;;;;;;5055058;28;20293;-65
2023/10/02 10:33:15;;;;;;;;;;;29.30;37.60;;;;;;5048577;28;19909;-65
2023/10/02 10:35:51;;;;;;;;;;;28.60;38.80;;;;;;5056750;28;20393;-65
2023/10/02 10:38:34;;;;;;;;;;;29.20;37.90;;;;;;5046502;28;19909;-65
2023/10/02 10:41:00;;;;;;;;;;;29.40;37.00;;;;;;5038591;28;19909;-65
2023/10/02 10:43:54;;;;;;;;;;;29.30;35.30;;;;;;5038343;28;19909;-65
2023/10/02 10:46:23;;;;;;;;;;;28.90;37.30;;;;;;5038315;28;19909;-65
2023/10/02 10:49:10;;;;;;;;;;;29.10;35.20;;;;;;5043035;28;20249;-65
2023/10/02 10:51:39;;;;;;;;;;;28.80;33.80;;;;;;5048781;28;20302;-65
2023/10/02 10:54:25;;;;;;;;;;;28.60;35.10;;;;;;5056651;28;19936;-65
2023/10/02 10:56:58;;;;;;;;;;;29.00;35.50;;;;;;5057741;28;20378;-66
2023/10/02 10:59:25;;;;;;;;;;;28.60;37.00;;;;;;5053443;28;19916;-65
2023/10/02 11:02:10;;;;;;;;;;;29.40;36.10;;;;;;5052615;28;19914;-65
2023/10/02 11:04:45;;;;;;;;;;;29.60;34.40;;;;;;5055444;28;20290;-65
2023/10/02 11:07:21;;;;;;;;;;;29.40;34.00;;;;;;5057367;28;19913;-65
2023/10/02 11:10:14;;;;;;;;;;;29.40;34.40;;;;;;5046566;28;20362;-65
2023/10/02 11:12:36;;;;;;;;;;;29.30;34.70;;;;;;5045024;28;19909;-65
2023/10/02 11:15:02;;;;;;;;;;;29.50;34.20;;;;;;5057539;28;19916;-65
2023/10/02 11:17:32;;;;;;;;;;;29.20;34.00;;;;;;5056948;28;19913;-65
2023/10/02 11:20:07;;;;;;;;;;;28.90;34.10;;;;;;5055406;28;20475;-64
2023/10/02 11:22:48;;;;;;;;;;;28.60;36.90;;;;;;5054125;28;19908;-65
2023/10/02 11:25:20;;;;;;;;;;;28.60;34.90;;;;;;5048327;28;19913;-66
2023/10/02 11:27:59;;;;;;;;;;;28.80;35.20;;;;;;5044975;28;19936;-66
2023/10/02 11:30:34;;;;;;;;;;;29.30;34.80;;;;;;5044160;28;20259;-66
2023/10/02 11:33:04;;;;;;;;;;;28.80;34.00;;;;;;5057474;28;19954;-66
2023/10/02 11:35:37;;;;;;;;;;;28.70;32.50;;;;;;5057122;28;19913;-66
2023/10/02 11:38:04;;;;;;;;;;;28.20;34.00;;;;;;5056931;28;19913;-66
2023/10/02 11:40:30;;;;;;;;;;;28.60;36.40;;;;;;5057158;28;19947;-66
2023/10/02 11:42:59;;;;;;;;;;;29.00;36.40;;;;;;5056615;28;19916;-66
2023/10/02 11:45:26;;;;;;;;;;;28.80;33.30;;;;;;5056418;28;19912;-66
2023/10/02 11:47:52;;;;;;;;;;;28.70;34.90;;;;;;5054835;28;19912;-66
2023/10/02 11:50:18;;;;;;;;;;;28.50;35.80;;;;;;5046805;28;19921;-66
2023/10/02 11:52:44;;;;;;;;;;;28.30;36.30;;;;;;5055876;28;19998;-66
2023/10/02 11:55:10;;;;;;;;;;;28.10;36.10;;;;;;5056321;28;19939;-65
2023/10/02 11:57:37;;;;;;;;;;;28.20;39.60;;;;;;5053960;28;20401;-65
2023/10/02 12:00:08;;;;;;;;;;;27.90;38.60;;;;;;5073923;28;19981;-65
2023/10/02 12:02:38;;;;;;;;;;;28.00;36.70;;;;;;5076541;28;19978;-66
2023/10/02 12:05:04;;;;;;;;;;;27.80;36.40;;;;;;5076072;28;20359;-65
2023/10/02 12:07:30;;;;;;;;;;;27.80;36.80;;;;;;5057760;28;19926;-65
2023/10/02 12:09:57;;;;;;;;;;;27.70;35.50;;;;;;5054613;28;19908;-65
2023/10/02 12:12:25;;;;;;;;;;;27.40;37.90;;;;;;5052841;28;19925;-65
2023/10/02 12:14:51;;;;;;;;;;;27.00;37.50;;;;;;5036293;28;19917;-65
2023/10/02 12:17:17;;;;;;;;;;;26.50;40.40;;;;;;5036198;28;20321;-65
2023/10/02 12:19:44;;;;;;;;;;;26.00;40.10;;;;;;5036148;28;19909;-65
2023/10/02 12:22:10;;;;;;;;;;;26.20;39.50;;;;;;5036348;28;20020;-65
2023/10/02 12:24:36;;;;;;;;;;;26.40;39.30;;;;;;5039139;28;19955;-65
2023/10/02 12:27:04;;;;;;;;;;;26.60;40.50;;;;;;5055796;28;19909;-65
2023/10/02 12:29:30;;;;;;;;;;;27.20;39.00;;;;;;5056094;28;19913;-65
2023/10/02 12:32:00;;;;;;;;;;;27.20;37.50;;;;;;5055623;28;19911;-65
2023/10/02 12:34:27;;;;;;;;;;;27.40;38.50;;;;;;5055787;28;19975;-65
2023/10/02 12:36:54;;;;;;;;;;;27.40;36.40;;;;;;5056080;28;20007;-65
2023/10/02 12:39:22;;;;;;;;;;;27.30;36.20;;;;;;5055781;28;19909;-65
2023/10/02 12:41:48;;;;;;;;;;;27.30;38.00;;;;;;5055740;28;20354;-65
2023/10/02 12:44:14;;;;;;;;;;;27.30;37.00;;;;;;5055786;28;19935;-65
2023/10/02 12:46:43;;;;;;;;;;;27.80;37.30;;;;;;5055578;28;19915;-65
2023/10/02 12:49:13;;;;;;;;;;;27.90;37.20;;;;;;5054708;28;20381;-65
2023/10/02 12:51:40;;;;;;;;;;;27.50;37.60;;;;;;5050979;28;19908;-65
2023/10/02 12:54:07;;;;;;;;;;;27.50;37.60;;;;;;5054029;28;19909;-65
2023/10/02 12:56:33;;;;;;;;;;;27.60;35.90;;;;;;5055415;28;19923;-65
2023/10/02 12:58:59;;;;;;;;;;;26.90;39.50;;;;;;5052501;28;19916;-66
2023/10/02 13:01:29;;;;;;;;;;;26.50;37.40;;;;;;5048881;28;19912;-65
2023/10/02 13:03:56;;;;;;;;;;;27.00;39.00;;;;;;5035369;28;19924;-65
2023/10/02 13:06:22;;;;;;;;;;;27.50;37.00;;;;;;5043244;28;19982;-65
2023/10/02 13:08:49;;;;;;;;;;;27.70;37.30;;;;;;5054305;28;19921;-65
2023/10/02 13:11:18;;;;;;;;;;;27.80;37.10;;;;;;5055209;28;19916;-65
2023/10/02 13:13:46;;;;;;;;;;;27.90;37.70;;;;;;5055824;28;19916;-65
2023/10/02 13:16:13;;;;;;;;;;;27.40;37.60;;;;;;5054308;28;19913;-65
2023/10/02 13:18:39;;;;;;;;;;;27.20;38.10;;;;;;5055777;28;20358;-65
2023/10/02 13:21:08;;;;;;;;;;;27.10;41.60;;;;;;5055706;28;20289;-65
2023/10/02 13:23:35;;;;;;;;;;;26.70;39.70;;;;;;5055621;28;19913;-65
2023/10/02 13:26:04;;;;;;;;;;;26.50;39.80;;;;;;5055026;28;19908;-65
2023/10/02 13:28:30;;;;;;;;;;;26.90;40.60;;;;;;5054119;28;19995;-66
2023/10/02 13:30:56;;;;;;;;;;;27.40;40.00;;;;;;5055274;28;19975;-65
2023/10/02 13:33:23;;;;;;;;;;;26.80;38.30;;;;;;5055575;28;19909;-65
2023/10/02 13:35:57;;;;;;;;;;;27.20;41.10;;;;;;5055219;28;20376;-65
2023/10/02 13:38:24;;;;;;;;;;;27.70;35.70;;;;;;5054785;28;19913;-66
2023/10/02 13:40:50;;;;;;;;;;;27.40;35.40;;;;;;5055638;28;19936;-66
2023/10/02 13:43:17;;;;;;;;;;;27.50;35.90;;;;;;5055335;28;19919;-66
2023/10/02 13:45:45;;;;;;;;;;;27.50;35.50;;;;;;5053988;28;19923;-66
2023/10/02 13:48:13;;;;;;;;;;;27.70;35.80;;;;;;5055175;28;20362;-66
2023/10/02 13:50:39;;;;;;;;;;;28.00;36.70;;;;;;5055436;28;19970;-66
2023/10/02 13:53:05;;;;;;;;;;;28.30;36.40;;;;;;5055091;28;20362;-66
2023/10/02 13:55:35;;;;;;;;;;;28.60;35.60;;;;;;5052525;28;20007;-66
2023/10/02 13:58:01;;;;;;;;;;;28.20;36.50;;;;;;5041340;28;19909;-66
2023/10/02 14:00:27;;;;;;;;;;;28.20;34.80;;;;;;5074212;28;19908;-66
2023/10/02 14:02:54;;;;;;;;;;;28.00;35.40;;;;;;5062548;28;19908;-66
2023/10/02 14:05:20;;;;;;;;;;;27.80;36.70;;;;;;5054440;28;19944;-66
2023/10/02 14:07:46;;;;;;;;;;;27.70;36.20;;;;;;5054262;28;20440;-66
2023/10/02 14:10:13;;;;;;;;;;;27.80;35.40;;;;;;5054497;28;20478;-66
2023/10/02 14:12:42;;;;;;;;;;;27.80;35.30;;;;;;5054084;28;19909;-66
2023/10/02 14:15:16;;;;;;;;;;;27.90;35.60;;;;;;5057119;28;19962;-66
2023/10/02 14:17:45;;;;;;;;;;;27.90;36.40;;;;;;5057923;28;19908;-66
2023/10/02 14:20:14;;;;;;;;;;;27.50;35.90;;;;;;5058157;28;19909;-66
2023/10/02 14:22:41;;;;;;;;;;;27.30;35.60;;;;;;5057442;28;19947;-66
2023/10/02 14:25:07;;;;;;;;;;;27.30;35.00;;;;;;5058119;28;19961;-65
2023/10/02 14:27:33;;;;;;;;;;;27.40;36.40;;;;;;5058811;28;19943;-65
2023/10/02 14:29:59;;;;;;;;;;;27.40;38.50;;;;;;5058222;28;19908;-65
2023/10/02 14:32:25;;;;;;;;;;;27.60;38.00;;;;;;5058474;28;19913;-65
2023/10/02 14:34:54;;;;;;;;;;;27.60;35.10;;;;;;5058342;28;19923;-65
2023/10/02 14:37:21;;;;;;;;;;;27.40;35.90;;;;;;5058148;28;19913;-65
2023/10/02 14:39:48;;;;;;;;;;;27.10;36.40;;;;;;5058473;28;19916;-65
2023/10/02 14:42:14;;;;;;;;;;;27.10;36.60;;;;;;5058444;28;19935;-65
2023/10/02 14:44:40;;;;;;;;;;;26.80;37.10;;;;;;5057902;28;19909;-65
2023/10/02 14:47:07;;;;;;;;;;;26.90;36.50;;;;;;5058169;28;19908;-65
2023/10/02 14:49:33;;;;;;;;;;;26.70;37.00;;;;;;5058338;28;20376;-65
2023/10/02 14:51:59;;;;;;;;;;;26.50;36.30;;;;;;5058060;28;19947;-65
2023/10/02 14:54:25;;;;;;;;;;;26.00;39.10;;;;;;5058180;28;19909;-65
2023/10/02 14:56:51;;;;;;;;;;;26.20;38.20;;;;;;5058199;28;20138;-65
2023/10/02 14:59:17;;;;;;;;;;;26.10;39.30;;;;;;5057056;28;20255;-65
2023/10/02 15:01:43;;;;;;;;;;;26.00;42.20;;;;;;5058080;28;19908;-65
2023/10/02 15:04:11;;;;;;;;;;;26.00;40.60;;;;;;5056796;28;19904;-66
2023/10/02 15:06:37;;;;;;;;;;;25.90;38.70;;;;;;5056891;28;19915;-65
2023/10/02 15:09:09;;;;;;;;;;;25.60;40.30;;;;;;5057226;28;20320;-65
2023/10/02 15:11:36;;;;;;;;;;;25.70;39.60;;;;;;5057353;28;20015;-65
2023/10/02 15:14:02;;;;;;;;;;;25.60;39.50;;;;;;5056807;28;20003;-65
2023/10/02 15:16:28;;;;;;;;;;;25.50;41.90;;;;;;5057695;28;20416;-65
2023/10/02 15:18:54;;;;;;;;;;;25.30;43.50;;;;;;5057702;28;19916;-65
2023/10/02 15:21:20;;;;;;;;;;;25.10;43.30;;;;;;5057373;28;19909;-65
2023/10/02 15:23:45;;;;;;;;;;;24.90;44.00;;;;;;5057671;28;19909;-65
2023/10/02 15:26:11;;;;;;;;;;;24.80;45.30;;;;;;5057117;28;19931;-65
2023/10/02 15:28:37;;;;;;;;;;;24.60;47.10;;;;;;5057310;28;20553;-65
2023/10/02 15:31:05;;;;;;;;;;;24.40;48.60;;;;;;5057565;28;19995;-65
2023/10/02 15:33:37;;;;;;;;;;;24.30;50.10;;;;;;5057421;28;19909;-65